sensor_id;sensor_type;location;lat;lon;timestamp;P1;durP1;ratioP1;P2;durP2;ratioP2
20986;SDS011;10652;50.306;8.570;2023-02-28T00:00:57;3.75;;;2.83;;
20986;SDS011;10652;50.306;8.570;2023-02-28T00:04:59;3.85;;;2.90;;
20986;SDS011;10652;50.306;8.570;2023-02-28T00:09:02;3.55;;;2.80;;
20986;SDS011;10652;50.306;8.570;2023-02-28T00:13:05;4.10;;;2.80;;
20986;SDS011;10652;50.306;8.570;2023-02-28T00:17:08;4.68;;;2.72;;
20986;SDS011;10652;50.306;8.570;2023-02-28T00:21:10;3.33;;;2.75;;
20986;SDS011;10652;50.306;8.570;2023-02-28T00:25:13;4.22;;;3.03;;
20986;SDS011;10652;50.306;8.570;2023-02-28T00:29:17;4.40;;;3.13;;
20986;SDS011;10652;50.306;8.570;2023-02-28T00:33:19;3.30;;;2.97;;
20986;SDS011;10652;50.306;8.570;2023-02-28T00:37:22;3.55;;;3.00;;
20986;SDS011;10652;50.306;8.570;2023-02-28T00:41:24;5.95;;;3.40;;
20986;SDS011;10652;50.306;8.570;2023-02-28T00:45:26;4.40;;;3.10;;
20986;SDS011;10652;50.306;8.570;2023-02-28T00:49:28;5.05;;;3.10;;
20986;SDS011;10652;50.306;8.570;2023-02-28T00:53:30;3.08;;;2.85;;
20986;SDS011;10652;50.306;8.570;2023-02-28T00:57:34;4.35;;;3.67;;
20986;SDS011;10652;50.306;8.570;2023-02-28T01:01:36;4.15;;;2.92;;
20986;SDS011;10652;50.306;8.570;2023-02-28T01:05:38;3.83;;;3.25;;
20986;SDS011;10652;50.306;8.570;2023-02-28T01:09:40;3.28;;;2.88;;
20986;SDS011;10652;50.306;8.570;2023-02-28T01:13:43;4.75;;;3.50;;
20986;SDS011;10652;50.306;8.570;2023-02-28T01:17:47;3.90;;;3.45;;
20986;SDS011;10652;50.306;8.570;2023-02-28T01:21:49;4.50;;;3.55;;
20986;SDS011;10652;50.306;8.570;2023-02-28T01:25:51;7.07;;;3.28;;
20986;SDS011;10652;50.306;8.570;2023-02-28T01:29:53;5.95;;;4.10;;
20986;SDS011;10652;50.306;8.570;2023-02-28T01:33:55;5.90;;;3.40;;
20986;SDS011;10652;50.306;8.570;2023-02-28T01:37:57;4.82;;;3.78;;
20986;SDS011;10652;50.306;8.570;2023-02-28T01:42:13;3.88;;;3.47;;
20986;SDS011;10652;50.306;8.570;2023-02-28T01:46:15;6.35;;;3.83;;
20986;SDS011;10652;50.306;8.570;2023-02-28T01:50:19;5.00;;;3.80;;
20986;SDS011;10652;50.306;8.570;2023-02-28T01:54:26;4.57;;;3.60;;
20986;SDS011;10652;50.306;8.570;2023-02-28T01:58:30;5.25;;;3.60;;
20986;SDS011;10652;50.306;8.570;2023-02-28T02:02:32;4.10;;;3.70;;
20986;SDS011;10652;50.306;8.570;2023-02-28T02:06:37;4.43;;;3.60;;
20986;SDS011;10652;50.306;8.570;2023-02-28T02:10:54;5.18;;;4.20;;
20986;SDS011;10652;50.306;8.570;2023-02-28T02:23:47;6.13;;;3.80;;
20986;SDS011;10652;50.306;8.570;2023-02-28T02:28:17;5.97;;;4.07;;
20986;SDS011;10652;50.306;8.570;2023-02-28T02:37:00;6.38;;;4.15;;
20986;SDS011;10652;50.306;8.570;2023-02-28T02:41:13;5.38;;;4.10;;
20986;SDS011;10652;50.306;8.570;2023-02-28T02:45:25;5.75;;;4.38;;
20986;SDS011;10652;50.306;8.570;2023-02-28T02:49:38;6.15;;;4.60;;
20986;SDS011;10652;50.306;8.570;2023-02-28T02:53:55;5.53;;;3.70;;
20986;SDS011;10652;50.306;8.570;2023-02-28T02:58:04;6.13;;;4.10;;
20986;SDS011;10652;50.306;8.570;2023-02-28T03:02:11;5.43;;;4.00;;
20986;SDS011;10652;50.306;8.570;2023-02-28T03:06:16;6.93;;;4.22;;
20986;SDS011;10652;50.306;8.570;2023-02-28T03:10:25;4.78;;;3.80;;
20986;SDS011;10652;50.306;8.570;2023-02-28T03:24:23;6.00;;;3.97;;
20986;SDS011;10652;50.306;8.570;2023-02-28T03:28:15;4.55;;;4.13;;
20986;SDS011;10652;50.306;8.570;2023-02-28T03:32:29;5.95;;;4.20;;
20986;SDS011;10652;50.306;8.570;2023-02-28T03:36:38;5.05;;;4.22;;
20986;SDS011;10652;50.306;8.570;2023-02-28T03:40:47;6.57;;;4.55;;
20986;SDS011;10652;50.306;8.570;2023-02-28T03:45:00;4.70;;;3.97;;
20986;SDS011;10652;50.306;8.570;2023-02-28T03:49:11;5.43;;;4.13;;
20986;SDS011;10652;50.306;8.570;2023-02-28T03:53:34;4.60;;;4.13;;
20986;SDS011;10652;50.306;8.570;2023-02-28T03:57:43;5.38;;;4.35;;
20986;SDS011;10652;50.306;8.570;2023-02-28T04:01:58;5.47;;;4.18;;
20986;SDS011;10652;50.306;8.570;2023-02-28T04:06:00;4.88;;;3.78;;
20986;SDS011;10652;50.306;8.570;2023-02-28T04:10:04;4.60;;;4.05;;
20986;SDS011;10652;50.306;8.570;2023-02-28T04:14:06;5.05;;;4.30;;
20986;SDS011;10652;50.306;8.570;2023-02-28T04:18:10;5.70;;;4.10;;
20986;SDS011;10652;50.306;8.570;2023-02-28T04:22:12;5.57;;;4.50;;
20986;SDS011;10652;50.306;8.570;2023-02-28T04:26:15;5.22;;;4.15;;
20986;SDS011;10652;50.306;8.570;2023-02-28T04:30:17;5.43;;;4.25;;
20986;SDS011;10652;50.306;8.570;2023-02-28T04:34:20;5.57;;;4.05;;
20986;SDS011;10652;50.306;8.570;2023-02-28T04:38:22;6.15;;;3.67;;
20986;SDS011;10652;50.306;8.570;2023-02-28T04:42:24;5.68;;;4.22;;
20986;SDS011;10652;50.306;8.570;2023-02-28T04:46:26;7.22;;;4.32;;
20986;SDS011;10652;50.306;8.570;2023-02-28T04:50:29;4.63;;;4.13;;
20986;SDS011;10652;50.306;8.570;2023-02-28T04:54:31;6.03;;;3.78;;
20986;SDS011;10652;50.306;8.570;2023-02-28T04:58:34;5.45;;;3.97;;
20986;SDS011;10652;50.306;8.570;2023-02-28T05:02:36;6.45;;;4.40;;
20986;SDS011;10652;50.306;8.570;2023-02-28T05:06:38;4.82;;;4.25;;
20986;SDS011;10652;50.306;8.570;2023-02-28T05:10:40;6.43;;;4.07;;
20986;SDS011;10652;50.306;8.570;2023-02-28T05:14:42;5.32;;;4.75;;
20986;SDS011;10652;50.306;8.570;2023-02-28T05:18:45;4.75;;;4.20;;
20986;SDS011;10652;50.306;8.570;2023-02-28T05:22:49;6.13;;;4.85;;
20986;SDS011;10652;50.306;8.570;2023-02-28T05:26:52;6.57;;;4.55;;
20986;SDS011;10652;50.306;8.570;2023-02-28T05:30:55;5.20;;;4.43;;
20986;SDS011;10652;50.306;8.570;2023-02-28T05:34:57;7.30;;;4.25;;
20986;SDS011;10652;50.306;8.570;2023-02-28T05:38:59;6.03;;;4.20;;
20986;SDS011;10652;50.306;8.570;2023-02-28T05:43:01;6.03;;;4.55;;
20986;SDS011;10652;50.306;8.570;2023-02-28T05:47:03;5.68;;;4.38;;
20986;SDS011;10652;50.306;8.570;2023-02-28T05:51:06;5.45;;;4.53;;
20986;SDS011;10652;50.306;8.570;2023-02-28T05:55:09;5.30;;;4.13;;
20986;SDS011;10652;50.306;8.570;2023-02-28T05:59:11;5.40;;;4.07;;
20986;SDS011;10652;50.306;8.570;2023-02-28T06:03:14;6.65;;;4.50;;
20986;SDS011;10652;50.306;8.570;2023-02-28T06:07:16;7.85;;;4.82;;
20986;SDS011;10652;50.306;8.570;2023-02-28T06:11:19;5.68;;;4.70;;
20986;SDS011;10652;50.306;8.570;2023-02-28T06:15:22;8.43;;;5.10;;
20986;SDS011;10652;50.306;8.570;2023-02-28T06:19:24;7.13;;;5.13;;
20986;SDS011;10652;50.306;8.570;2023-02-28T06:23:29;6.53;;;4.60;;
20986;SDS011;10652;50.306;8.570;2023-02-28T06:27:32;4.97;;;4.32;;
20986;SDS011;10652;50.306;8.570;2023-02-28T06:31:35;6.10;;;4.55;;
20986;SDS011;10652;50.306;8.570;2023-02-28T06:35:37;7.30;;;5.22;;
20986;SDS011;10652;50.306;8.570;2023-02-28T06:39:39;7.60;;;4.50;;
20986;SDS011;10652;50.306;8.570;2023-02-28T06:43:42;5.72;;;4.22;;
20986;SDS011;10652;50.306;8.570;2023-02-28T06:47:44;6.20;;;4.55;;
20986;SDS011;10652;50.306;8.570;2023-02-28T06:51:46;6.63;;;4.57;;
20986;SDS011;10652;50.306;8.570;2023-02-28T06:55:49;5.25;;;4.25;;
20986;SDS011;10652;50.306;8.570;2023-02-28T06:59:51;6.75;;;4.68;;
20986;SDS011;10652;50.306;8.570;2023-02-28T07:03:53;5.72;;;4.78;;
20986;SDS011;10652;50.306;8.570;2023-02-28T07:07:56;6.47;;;4.63;;
20986;SDS011;10652;50.306;8.570;2023-02-28T07:11:58;4.93;;;4.20;;
20986;SDS011;10652;50.306;8.570;2023-02-28T07:16:05;6.18;;;4.20;;
20986;SDS011;10652;50.306;8.570;2023-02-28T07:20:10;5.15;;;3.85;;
20986;SDS011;10652;50.306;8.570;2023-02-28T07:24:13;5.22;;;3.90;;
20986;SDS011;10652;50.306;8.570;2023-02-28T07:28:17;5.80;;;4.00;;
20986;SDS011;10652;50.306;8.570;2023-02-28T07:32:20;4.55;;;3.70;;
20986;SDS011;10652;50.306;8.570;2023-02-28T07:36:23;5.47;;;4.00;;
20986;SDS011;10652;50.306;8.570;2023-02-28T07:40:25;5.18;;;3.92;;
20986;SDS011;10652;50.306;8.570;2023-02-28T07:44:28;5.10;;;4.18;;
20986;SDS011;10652;50.306;8.570;2023-02-28T07:48:30;5.85;;;4.03;;
20986;SDS011;10652;50.306;8.570;2023-02-28T07:52:33;5.22;;;4.28;;
20986;SDS011;10652;50.306;8.570;2023-02-28T07:56:35;5.85;;;4.35;;
20986;SDS011;10652;50.306;8.570;2023-02-28T08:00:37;4.93;;;3.78;;
20986;SDS011;10652;50.306;8.570;2023-02-28T08:04:40;4.95;;;3.80;;
20986;SDS011;10652;50.306;8.570;2023-02-28T08:08:42;4.78;;;3.70;;
20986;SDS011;10652;50.306;8.570;2023-02-28T08:12:46;5.18;;;3.38;;
20986;SDS011;10652;50.306;8.570;2023-02-28T08:16:48;5.00;;;3.30;;
20986;SDS011;10652;50.306;8.570;2023-02-28T08:20:50;5.43;;;3.75;;
20986;SDS011;10652;50.306;8.570;2023-02-28T08:24:52;4.70;;;3.35;;
20986;SDS011;10652;50.306;8.570;2023-02-28T08:28:54;3.85;;;3.45;;
20986;SDS011;10652;50.306;8.570;2023-02-28T08:32:58;6.47;;;3.70;;
20986;SDS011;10652;50.306;8.570;2023-02-28T08:37:00;4.65;;;3.38;;
20986;SDS011;10652;50.306;8.570;2023-02-28T08:41:06;5.00;;;3.90;;
20986;SDS011;10652;50.306;8.570;2023-02-28T08:45:11;4.65;;;3.60;;
20986;SDS011;10652;50.306;8.570;2023-02-28T08:49:13;4.95;;;2.83;;
20986;SDS011;10652;50.306;8.570;2023-02-28T08:53:15;5.10;;;2.97;;
20986;SDS011;10652;50.306;8.570;2023-02-28T08:57:17;5.93;;;3.50;;
20986;SDS011;10652;50.306;8.570;2023-02-28T09:01:20;4.78;;;3.40;;
20986;SDS011;10652;50.306;8.570;2023-02-28T09:05:24;5.47;;;3.30;;
20986;SDS011;10652;50.306;8.570;2023-02-28T09:09:26;3.90;;;2.97;;
20986;SDS011;10652;50.306;8.570;2023-02-28T09:13:28;3.92;;;3.17;;
20986;SDS011;10652;50.306;8.570;2023-02-28T09:17:31;5.97;;;3.00;;
20986;SDS011;10652;50.306;8.570;2023-02-28T09:21:33;5.22;;;3.03;;
20986;SDS011;10652;50.306;8.570;2023-02-28T09:25:35;5.22;;;2.70;;
20986;SDS011;10652;50.306;8.570;2023-02-28T09:29:38;4.68;;;3.25;;
20986;SDS011;10652;50.306;8.570;2023-02-28T09:33:40;3.85;;;2.80;;
20986;SDS011;10652;50.306;8.570;2023-02-28T09:37:42;3.45;;;2.72;;
20986;SDS011;10652;50.306;8.570;2023-02-28T09:41:45;3.28;;;2.97;;
20986;SDS011;10652;50.306;8.570;2023-02-28T09:45:54;4.03;;;3.13;;
20986;SDS011;10652;50.306;8.570;2023-02-28T09:50:17;3.97;;;3.25;;
20986;SDS011;10652;50.306;8.570;2023-02-28T09:58:37;6.03;;;3.45;;
20986;SDS011;10652;50.306;8.570;2023-02-28T10:03:03;5.03;;;3.60;;
20986;SDS011;10652;50.306;8.570;2023-02-28T10:07:16;5.53;;;3.30;;
20986;SDS011;10652;50.306;8.570;2023-02-28T10:11:25;4.13;;;3.25;;
20986;SDS011;10652;50.306;8.570;2023-02-28T10:15:30;4.18;;;3.45;;
20986;SDS011;10652;50.306;8.570;2023-02-28T10:20:20;4.32;;;3.50;;
20986;SDS011;10652;50.306;8.570;2023-02-28T10:24:03;4.10;;;3.47;;
20986;SDS011;10652;50.306;8.570;2023-02-28T10:28:15;4.65;;;3.60;;
20986;SDS011;10652;50.306;8.570;2023-02-28T10:32:23;4.38;;;3.22;;
20986;SDS011;10652;50.306;8.570;2023-02-28T10:36:32;5.75;;;3.25;;
20986;SDS011;10652;50.306;8.570;2023-02-28T10:40:37;4.38;;;3.40;;
20986;SDS011;10652;50.306;8.570;2023-02-28T10:44:39;6.07;;;3.50;;
20986;SDS011;10652;50.306;8.570;2023-02-28T10:48:42;5.03;;;4.00;;
20986;SDS011;10652;50.306;8.570;2023-02-28T10:52:46;4.22;;;3.65;;
20986;SDS011;10652;50.306;8.570;2023-02-28T10:57:04;4.40;;;3.25;;
20986;SDS011;10652;50.306;8.570;2023-02-28T11:01:17;4.15;;;3.17;;
20986;SDS011;10652;50.306;8.570;2023-02-28T11:09:35;5.28;;;3.65;;
20986;SDS011;10652;50.306;8.570;2023-02-28T11:13:40;4.32;;;3.30;;
20986;SDS011;10652;50.306;8.570;2023-02-28T11:17:43;4.72;;;3.80;;
20986;SDS011;10652;50.306;8.570;2023-02-28T11:21:52;6.25;;;3.60;;
20986;SDS011;10652;50.306;8.570;2023-02-28T11:25:58;4.95;;;3.85;;
20986;SDS011;10652;50.306;8.570;2023-02-28T11:30:03;5.00;;;3.55;;
20986;SDS011;10652;50.306;8.570;2023-02-28T11:34:21;5.18;;;3.58;;
20986;SDS011;10652;50.306;8.570;2023-02-28T11:38:27;4.20;;;3.80;;
20986;SDS011;10652;50.306;8.570;2023-02-28T11:46:43;4.65;;;3.58;;
20986;SDS011;10652;50.306;8.570;2023-02-28T11:51:15;4.07;;;3.55;;
20986;SDS011;10652;50.306;8.570;2023-02-28T12:00:00;6.00;;;4.05;;
20986;SDS011;10652;50.306;8.570;2023-02-28T12:04:24;5.80;;;4.13;;
20986;SDS011;10652;50.306;8.570;2023-02-28T12:08:43;5.13;;;4.40;;
20986;SDS011;10652;50.306;8.570;2023-02-28T12:21:54;5.07;;;4.10;;
20986;SDS011;10652;50.306;8.570;2023-02-28T12:26:12;4.63;;;4.13;;
20986;SDS011;10652;50.306;8.570;2023-02-28T12:30:26;4.82;;;3.70;;
20986;SDS011;10652;50.306;8.570;2023-02-28T12:34:32;7.28;;;5.22;;
20986;SDS011;10652;50.306;8.570;2023-02-28T12:42:46;6.20;;;4.20;;
20986;SDS011;10652;50.306;8.570;2023-02-28T12:46:54;5.13;;;3.90;;
20986;SDS011;10652;50.306;8.570;2023-02-28T12:51:00;5.70;;;4.13;;
20986;SDS011;10652;50.306;8.570;2023-02-28T12:59:25;10.02;;;4.40;;
20986;SDS011;10652;50.306;8.570;2023-02-28T13:08:28;4.35;;;3.95;;
20986;SDS011;10652;50.306;8.570;2023-02-28T13:12:53;5.32;;;4.30;;
20986;SDS011;10652;50.306;8.570;2023-02-28T13:21:27;4.32;;;3.90;;
20986;SDS011;10652;50.306;8.570;2023-02-28T13:29:40;5.55;;;4.40;;
20986;SDS011;10652;50.306;8.570;2023-02-28T13:37:50;7.75;;;4.22;;
20986;SDS011;10652;50.306;8.570;2023-02-28T13:41:53;5.28;;;4.00;;
20986;SDS011;10652;50.306;8.570;2023-02-28T13:46:06;5.25;;;3.72;;
20986;SDS011;10652;50.306;8.570;2023-02-28T13:50:29;4.53;;;3.80;;
20986;SDS011;10652;50.306;8.570;2023-02-28T13:59:08;5.32;;;3.88;;
20986;SDS011;10652;50.306;8.570;2023-02-28T14:08:03;6.10;;;4.18;;
20986;SDS011;10652;50.306;8.570;2023-02-28T14:16:49;5.57;;;4.65;;
20986;SDS011;10652;50.306;8.570;2023-02-28T14:20:53;5.20;;;4.68;;
20986;SDS011;10652;50.306;8.570;2023-02-28T14:25:20;6.07;;;4.15;;
20986;SDS011;10652;50.306;8.570;2023-02-28T14:29:31;5.88;;;4.32;;
20986;SDS011;10652;50.306;8.570;2023-02-28T14:34:04;6.15;;;4.65;;
20986;SDS011;10652;50.306;8.570;2023-02-28T14:38:25;5.95;;;4.13;;
20986;SDS011;10652;50.306;8.570;2023-02-28T14:46:37;5.80;;;4.20;;
20986;SDS011;10652;50.306;8.570;2023-02-28T14:50:41;7.65;;;4.13;;
20986;SDS011;10652;50.306;8.570;2023-02-28T14:54:52;6.15;;;4.53;;
20986;SDS011;10652;50.306;8.570;2023-02-28T14:58:55;5.63;;;4.43;;
20986;SDS011;10652;50.306;8.570;2023-02-28T15:02:59;7.95;;;4.38;;
20986;SDS011;10652;50.306;8.570;2023-02-28T15:07:15;5.50;;;4.43;;
20986;SDS011;10652;50.306;8.570;2023-02-28T15:11:17;5.80;;;4.35;;
20986;SDS011;10652;50.306;8.570;2023-02-28T15:15:30;6.45;;;4.18;;
20986;SDS011;10652;50.306;8.570;2023-02-28T15:19:59;5.43;;;4.45;;
20986;SDS011;10652;50.306;8.570;2023-02-28T15:24:13;5.20;;;4.50;;
20986;SDS011;10652;50.306;8.570;2023-02-28T15:28:25;5.53;;;4.35;;
20986;SDS011;10652;50.306;8.570;2023-02-28T15:32:29;6.40;;;4.47;;
20986;SDS011;10652;50.306;8.570;2023-02-28T15:36:33;5.13;;;4.47;;
20986;SDS011;10652;50.306;8.570;2023-02-28T15:40:41;4.95;;;3.90;;
20986;SDS011;10652;50.306;8.570;2023-02-28T15:44:45;4.57;;;4.00;;
20986;SDS011;10652;50.306;8.570;2023-02-28T15:48:51;6.40;;;4.40;;
20986;SDS011;10652;50.306;8.570;2023-02-28T15:52:54;4.90;;;4.10;;
20986;SDS011;10652;50.306;8.570;2023-02-28T15:56:57;5.15;;;4.22;;
20986;SDS011;10652;50.306;8.570;2023-02-28T16:01:16;5.45;;;4.45;;
20986;SDS011;10652;50.306;8.570;2023-02-28T16:05:30;5.55;;;4.50;;
20986;SDS011;10652;50.306;8.570;2023-02-28T16:09:33;6.18;;;4.47;;
20986;SDS011;10652;50.306;8.570;2023-02-28T16:13:36;6.38;;;4.40;;
20986;SDS011;10652;50.306;8.570;2023-02-28T16:17:38;5.75;;;4.47;;
20986;SDS011;10652;50.306;8.570;2023-02-28T16:21:41;7.00;;;4.68;;
20986;SDS011;10652;50.306;8.570;2023-02-28T16:25:43;6.63;;;4.72;;
20986;SDS011;10652;50.306;8.570;2023-02-28T16:29:47;6.82;;;4.80;;
20986;SDS011;10652;50.306;8.570;2023-02-28T16:33:50;5.82;;;4.43;;
20986;SDS011;10652;50.306;8.570;2023-02-28T16:37:52;5.47;;;4.38;;
20986;SDS011;10652;50.306;8.570;2023-02-28T16:41:55;6.10;;;4.65;;
20986;SDS011;10652;50.306;8.570;2023-02-28T16:45:57;7.72;;;5.00;;
20986;SDS011;10652;50.306;8.570;2023-02-28T16:50:05;10.25;;;5.05;;
20986;SDS011;10652;50.306;8.570;2023-02-28T16:54:17;10.73;;;6.95;;
20986;SDS011;10652;50.306;8.570;2023-02-28T16:58:19;9.43;;;6.28;;
20986;SDS011;10652;50.306;8.570;2023-02-28T17:02:23;10.10;;;6.80;;
20986;SDS011;10652;50.306;8.570;2023-02-28T17:06:26;8.98;;;6.60;;
20986;SDS011;10652;50.306;8.570;2023-02-28T17:10:30;14.38;;;9.07;;
20986;SDS011;10652;50.306;8.570;2023-02-28T17:14:32;9.10;;;6.78;;
20986;SDS011;10652;50.306;8.570;2023-02-28T17:18:34;8.43;;;6.40;;
20986;SDS011;10652;50.306;8.570;2023-02-28T17:22:36;7.32;;;5.80;;
20986;SDS011;10652;50.306;8.570;2023-02-28T17:26:39;12.30;;;6.03;;
20986;SDS011;10652;50.306;8.570;2023-02-28T17:30:42;7.35;;;5.53;;
20986;SDS011;10652;50.306;8.570;2023-02-28T17:34:48;7.87;;;5.57;;
20986;SDS011;10652;50.306;8.570;2023-02-28T17:38:51;10.25;;;5.82;;
20986;SDS011;10652;50.306;8.570;2023-02-28T17:42:54;8.25;;;6.15;;
20986;SDS011;10652;50.306;8.570;2023-02-28T17:46:58;14.82;;;9.93;;
20986;SDS011;10652;50.306;8.570;2023-02-28T17:51:00;13.15;;;8.57;;
20986;SDS011;10652;50.306;8.570;2023-02-28T17:55:03;8.10;;;5.95;;
20986;SDS011;10652;50.306;8.570;2023-02-28T17:59:06;8.50;;;6.00;;
20986;SDS011;10652;50.306;8.570;2023-02-28T18:03:11;9.07;;;6.97;;
20986;SDS011;10652;50.306;8.570;2023-02-28T18:07:14;6.65;;;5.40;;
20986;SDS011;10652;50.306;8.570;2023-02-28T18:11:17;8.85;;;5.20;;
20986;SDS011;10652;50.306;8.570;2023-02-28T18:15:21;9.80;;;5.80;;
20986;SDS011;10652;50.306;8.570;2023-02-28T18:19:23;13.63;;;7.00;;
20986;SDS011;10652;50.306;8.570;2023-02-28T18:23:25;11.80;;;6.10;;
20986;SDS011;10652;50.306;8.570;2023-02-28T18:27:27;10.38;;;6.80;;
20986;SDS011;10652;50.306;8.570;2023-02-28T18:31:29;7.78;;;5.55;;
20986;SDS011;10652;50.306;8.570;2023-02-28T18:35:33;7.65;;;5.38;;
20986;SDS011;10652;50.306;8.570;2023-02-28T18:39:36;7.35;;;4.75;;
20986;SDS011;10652;50.306;8.570;2023-02-28T18:43:38;8.10;;;6.10;;
20986;SDS011;10652;50.306;8.570;2023-02-28T18:47:40;10.48;;;7.30;;
20986;SDS011;10652;50.306;8.570;2023-02-28T18:51:42;7.50;;;6.18;;
20986;SDS011;10652;50.306;8.570;2023-02-28T18:55:46;8.05;;;5.90;;
20986;SDS011;10652;50.306;8.570;2023-02-28T18:59:48;7.90;;;5.90;;
20986;SDS011;10652;50.306;8.570;2023-02-28T19:03:50;7.88;;;5.65;;
20986;SDS011;10652;50.306;8.570;2023-02-28T19:07:52;8.93;;;5.68;;
20986;SDS011;10652;50.306;8.570;2023-02-28T19:11:54;7.93;;;5.97;;
20986;SDS011;10652;50.306;8.570;2023-02-28T19:15:59;10.95;;;6.65;;
20986;SDS011;10652;50.306;8.570;2023-02-28T19:20:03;9.95;;;6.53;;
20986;SDS011;10652;50.306;8.570;2023-02-28T19:24:06;10.80;;;6.50;;
20986;SDS011;10652;50.306;8.570;2023-02-28T19:28:08;9.00;;;6.85;;
20986;SDS011;10652;50.306;8.570;2023-02-28T19:32:10;9.50;;;6.57;;
20986;SDS011;10652;50.306;8.570;2023-02-28T19:36:12;7.65;;;6.05;;
20986;SDS011;10652;50.306;8.570;2023-02-28T19:40:15;8.05;;;5.75;;
20986;SDS011;10652;50.306;8.570;2023-02-28T19:44:18;9.20;;;6.50;;
20986;SDS011;10652;50.306;8.570;2023-02-28T19:48:20;8.73;;;6.22;;
20986;SDS011;10652;50.306;8.570;2023-02-28T19:52:25;7.97;;;6.00;;
20986;SDS011;10652;50.306;8.570;2023-02-28T19:56:27;9.57;;;6.43;;
20986;SDS011;10652;50.306;8.570;2023-02-28T20:00:30;8.68;;;6.65;;
20986;SDS011;10652;50.306;8.570;2023-02-28T20:04:32;10.52;;;7.13;;
20986;SDS011;10652;50.306;8.570;2023-02-28T20:08:34;14.95;;;8.93;;
20986;SDS011;10652;50.306;8.570;2023-02-28T20:12:37;26.85;;;14.27;;
20986;SDS011;10652;50.306;8.570;2023-02-28T20:16:39;23.05;;;12.30;;
20986;SDS011;10652;50.306;8.570;2023-02-28T20:20:42;12.43;;;8.38;;
20986;SDS011;10652;50.306;8.570;2023-02-28T20:24:45;10.95;;;7.88;;
20986;SDS011;10652;50.306;8.570;2023-02-28T20:28:48;13.80;;;9.98;;
20986;SDS011;10652;50.306;8.570;2023-02-28T20:32:51;12.52;;;9.57;;
20986;SDS011;10652;50.306;8.570;2023-02-28T20:36:53;9.32;;;7.60;;
20986;SDS011;10652;50.306;8.570;2023-02-28T20:40:57;10.52;;;8.40;;
20986;SDS011;10652;50.306;8.570;2023-02-28T20:45:00;11.50;;;8.38;;
20986;SDS011;10652;50.306;8.570;2023-02-28T20:49:02;12.82;;;8.35;;
20986;SDS011;10652;50.306;8.570;2023-02-28T20:53:04;11.07;;;7.50;;
20986;SDS011;10652;50.306;8.570;2023-02-28T20:57:06;10.63;;;8.35;;
20986;SDS011;10652;50.306;8.570;2023-02-28T21:01:10;13.95;;;7.97;;
20986;SDS011;10652;50.306;8.570;2023-02-28T21:05:19;9.93;;;6.88;;
20986;SDS011;10652;50.306;8.570;2023-02-28T21:09:21;9.13;;;7.50;;
20986;SDS011;10652;50.306;8.570;2023-02-28T21:13:24;8.95;;;7.55;;
20986;SDS011;10652;50.306;8.570;2023-02-28T21:17:27;12.90;;;9.60;;
20986;SDS011;10652;50.306;8.570;2023-02-28T21:21:37;14.50;;;10.25;;
20986;SDS011;10652;50.306;8.570;2023-02-28T21:25:43;15.35;;;12.00;;
20986;SDS011;10652;50.306;8.570;2023-02-28T21:29:45;9.63;;;7.43;;
20986;SDS011;10652;50.306;8.570;2023-02-28T21:33:48;12.05;;;8.05;;
20986;SDS011;10652;50.306;8.570;2023-02-28T21:37:50;11.27;;;8.30;;
20986;SDS011;10652;50.306;8.570;2023-02-28T21:41:53;10.40;;;7.85;;
20986;SDS011;10652;50.306;8.570;2023-02-28T21:45:55;9.68;;;7.85;;
20986;SDS011;10652;50.306;8.570;2023-02-28T21:49:57;9.48;;;7.80;;
20986;SDS011;10652;50.306;8.570;2023-02-28T21:53:59;10.63;;;8.00;;
20986;SDS011;10652;50.306;8.570;2023-02-28T21:58:02;11.13;;;8.15;;
20986;SDS011;10652;50.306;8.570;2023-02-28T22:02:04;11.32;;;8.38;;
20986;SDS011;10652;50.306;8.570;2023-02-28T22:06:07;10.07;;;7.82;;
20986;SDS011;10652;50.306;8.570;2023-02-28T22:10:17;24.73;;;15.95;;
20986;SDS011;10652;50.306;8.570;2023-02-28T22:14:19;9.57;;;8.07;;
20986;SDS011;10652;50.306;8.570;2023-02-28T22:18:21;10.43;;;8.25;;
20986;SDS011;10652;50.306;8.570;2023-02-28T22:22:23;11.13;;;7.78;;
20986;SDS011;10652;50.306;8.570;2023-02-28T22:26:26;11.55;;;8.00;;
20986;SDS011;10652;50.306;8.570;2023-02-28T22:30:29;12.02;;;8.48;;
20986;SDS011;10652;50.306;8.570;2023-02-28T22:34:31;10.20;;;8.23;;
20986;SDS011;10652;50.306;8.570;2023-02-28T22:38:34;15.00;;;11.40;;
20986;SDS011;10652;50.306;8.570;2023-02-28T22:42:36;27.02;;;16.83;;
20986;SDS011;10652;50.306;8.570;2023-02-28T22:46:38;26.27;;;16.55;;
20986;SDS011;10652;50.306;8.570;2023-02-28T22:50:40;20.83;;;13.27;;
20986;SDS011;10652;50.306;8.570;2023-02-28T22:54:43;17.30;;;12.18;;
20986;SDS011;10652;50.306;8.570;2023-02-28T22:58:49;15.13;;;10.77;;
20986;SDS011;10652;50.306;8.570;2023-02-28T23:02:52;14.63;;;10.52;;
20986;SDS011;10652;50.306;8.570;2023-02-28T23:06:54;13.05;;;9.63;;
20986;SDS011;10652;50.306;8.570;2023-02-28T23:10:56;16.13;;;10.77;;
20986;SDS011;10652;50.306;8.570;2023-02-28T23:14:58;14.07;;;10.05;;
20986;SDS011;10652;50.306;8.570;2023-02-28T23:19:02;12.65;;;9.35;;
20986;SDS011;10652;50.306;8.570;2023-02-28T23:23:09;12.15;;;9.48;;
20986;SDS011;10652;50.306;8.570;2023-02-28T23:27:13;13.73;;;9.57;;
20986;SDS011;10652;50.306;8.570;2023-02-28T23:31:15;13.52;;;10.05;;
20986;SDS011;10652;50.306;8.570;2023-02-28T23:35:17;12.07;;;9.05;;
20986;SDS011;10652;50.306;8.570;2023-02-28T23:39:20;14.10;;;9.40;;
20986;SDS011;10652;50.306;8.570;2023-02-28T23:43:22;12.55;;;9.10;;
20986;SDS011;10652;50.306;8.570;2023-02-28T23:47:24;11.68;;;8.73;;
20986;SDS011;10652;50.306;8.570;2023-02-28T23:51:27;13.90;;;9.05;;
20986;SDS011;10652;50.306;8.570;2023-02-28T23:55:29;11.20;;;8.10;;
20986;SDS011;10652;50.306;8.570;2023-02-28T23:59:32;12.57;;;8.70;;
